CheckWX is a tool to help pilots better visualize weather data.  It is not intended as a substitute for an official pre-flight weather briefing.

10:36:51 UTC

KLHQ METAR
Fairfield County Airport
Lancaster, Ohio, USA
Current

44 mins ago

KLHQ 140953Z AUTO 26004KT 10SM CLR 09/03 A2999 RMK AO2 SLP155 T00940028
Observed
Oct-14 @ 09:53 UTC
Wind
  • 260° at 4 KTS
Visibility
10 SM
Flight Rules
VFR
Cloud Levels
  • Clear skies
Temperature
C / 48°F
Dewpoint
C / 37°F
Humidity
66%
Altimeter
29.99" Hg
Pressure
1015.62 hPa
Previous

2 hours ago

KLHQ 140853Z AUTO 23006KT 10SM CLR 11/03 A2998 RMK AO2 SLP149 T01060028 53005
Observed
Oct-14 @ 08:53 UTC
Wind
  • 230° at 6 KTS
Visibility
10 SM
Flight Rules
VFR
Cloud Levels
  • Clear skies
Temperature
11°C / 52°F
Dewpoint
C / 37°F
Humidity
58%
Altimeter
29.98" Hg
Pressure
1015.22 hPa
Previous

3 hours ago

KLHQ 140753Z AUTO 25006KT 10SM CLR 11/03 A2996 RMK AO2 SLP144 T01060028
Observed
Oct-14 @ 07:53 UTC
Wind
  • 250° at 6 KTS
Visibility
10 SM
Flight Rules
VFR
Cloud Levels
  • Clear skies
Temperature
11°C / 52°F
Dewpoint
C / 37°F
Humidity
58%
Altimeter
29.96" Hg
Pressure
1014.52 hPa